createdAt,value
2019-01-16T00:02:27.912Z,97.60
2019-01-16T00:05:07.779Z,97.90
2019-01-16T00:07:50.830Z,97.50
2019-01-16T00:10:38.065Z,97.60
2019-01-16T00:13:09.023Z,97.70
2019-01-16T00:15:39.973Z,97.50
2019-01-16T00:18:17.054Z,97.60
2019-01-16T00:20:49.529Z,97.60
2019-01-16T00:23:29.571Z,97.50
2019-01-16T00:26:09.317Z,97.30
2019-01-16T00:28:42.965Z,97.50
2019-01-16T00:31:13.919Z,97.40
2019-01-16T00:33:47.741Z,97.50
2019-01-16T00:36:34.043Z,97.20
2019-01-16T00:39:06.621Z,97.20
2019-01-16T00:41:49.456Z,97.00
2019-01-16T00:44:20.401Z,97.30
2019-01-16T00:46:57.211Z,97.20
2019-01-16T00:49:33.917Z,97.10
2019-01-16T00:52:19.653Z,97.10
2019-01-16T00:54:53.356Z,97.00
2019-01-16T00:57:40.641Z,96.90
2019-01-16T01:00:22.866Z,96.90
2019-01-16T01:02:57.001Z,97.10
2019-01-16T01:05:36.997Z,96.80
2019-01-16T01:08:07.941Z,96.80
2019-01-16T01:10:38.889Z,96.80
2019-01-16T01:13:18.624Z,97.00
2019-01-16T01:15:49.548Z,96.80
2019-01-16T01:18:20.531Z,96.60
2019-01-16T01:20:51.435Z,96.90
2019-01-16T01:23:25.106Z,96.60
2019-01-16T01:26:14.381Z,96.60
2019-01-16T01:28:54.174Z,96.90
2019-01-16T01:31:27.837Z,97.10
2019-01-16T01:34:14.745Z,96.70
2019-01-16T01:37:00.738Z,96.70
2019-01-16T01:39:38.790Z,96.70
2019-01-16T01:42:19.024Z,97.00
2019-01-16T01:45:02.048Z,96.80
2019-01-16T01:47:50.438Z,96.70
2019-01-16T01:50:30.254Z,96.70
2019-01-16T01:53:07.229Z,96.60
2019-01-16T01:55:38.154Z,96.30
2019-01-16T01:58:14.960Z,96.30
2019-01-16T02:00:54.634Z,96.70
2019-01-16T02:03:28.330Z,96.40
2019-01-16T02:05:59.285Z,96.40
2019-01-16T02:08:30.245Z,96.30
2019-01-16T02:11:01.201Z,96.10
2019-01-16T02:13:32.120Z,95.90
2019-01-16T02:16:03.083Z,95.90
2019-01-16T02:18:50.269Z,96.20
2019-01-16T02:21:24.199Z,96.20
2019-01-16T02:23:55.122Z,95.80
2019-01-16T02:26:42.494Z,95.80
2019-01-16T02:29:15.942Z,95.90
2019-01-16T02:32:03.172Z,95.80
2019-01-16T02:34:49.107Z,95.80
2019-01-16T02:37:22.773Z,95.60
2019-01-16T02:40:02.702Z,95.70
2019-01-16T02:42:33.951Z,95.80
2019-01-16T02:45:23.229Z,95.90
2019-01-16T02:48:10.248Z,95.50
2019-01-16T02:50:41.199Z,95.70
2019-01-16T02:53:14.862Z,95.60
2019-01-16T02:55:48.571Z,95.60
2019-01-16T02:58:22.340Z,95.70
2019-01-16T03:00:53.297Z,95.70
2019-01-16T03:03:24.268Z,95.50
2019-01-16T03:06:01.291Z,96.00
2019-01-16T03:08:50.708Z,95.70
2019-01-16T03:11:21.661Z,95.70
2019-01-16T03:13:55.207Z,95.80
2019-01-16T03:16:41.044Z,95.50
2019-01-16T03:19:20.885Z,95.70
2019-01-16T03:22:03.806Z,95.70
2019-01-16T03:24:40.714Z,95.50
2019-01-16T03:27:11.627Z,95.50
2019-01-16T03:29:51.795Z,95.60
2019-01-16T03:32:28.723Z,95.70
2019-01-16T03:34:59.718Z,95.50
2019-01-16T03:37:30.629Z,95.30
2019-01-16T03:40:17.931Z,95.50
2019-01-16T03:42:57.798Z,95.20
2019-01-16T03:45:31.229Z,95.20
2019-01-16T03:48:11.269Z,95.60
2019-01-16T03:51:00.236Z,95.20
2019-01-16T03:53:31.200Z,95.30
2019-01-16T03:56:11.357Z,95.20
2019-01-16T03:58:48.437Z,95.10
2019-01-16T04:01:35.691Z,95.20
2019-01-16T04:04:13.711Z,95.20
2019-01-16T04:07:03.013Z,95.20
2019-01-16T04:09:50.069Z,95.40
2019-01-16T04:12:21.045Z,95.30
2019-01-16T04:15:08.356Z,95.30
2019-01-16T04:17:45.103Z,95.30
2019-01-16T04:20:16.022Z,95.30
2019-01-16T04:22:49.726Z,95.00
2019-01-16T04:25:32.638Z,95.00
2019-01-16T04:28:19.561Z,95.20
2019-01-16T04:31:18.654Z,95.30
2019-01-16T04:33:55.629Z,94.90
2019-01-16T04:36:41.733Z,95.10
2019-01-16T04:39:28.819Z,95.10
2019-01-16T04:42:02.757Z,95.30
2019-01-16T04:44:42.733Z,94.90
2019-01-16T04:47:13.688Z,95.10
2019-01-16T04:50:01.078Z,94.90
2019-01-16T04:52:38.257Z,94.80
2019-01-16T04:55:15.218Z,95.10
2019-01-16T04:57:49.041Z,95.00
2019-01-16T05:00:22.791Z,95.00
2019-01-16T05:02:56.290Z,94.70
2019-01-16T05:05:45.327Z,94.80
2019-01-16T05:08:16.263Z,94.80
2019-01-16T05:10:59.648Z,94.90
2019-01-16T05:13:36.396Z,95.00
2019-01-16T05:16:07.349Z,94.80
2019-01-16T05:18:50.527Z,94.80
2019-01-16T05:21:24.235Z,94.70
2019-01-16T05:23:55.210Z,94.90
2019-01-16T05:26:27.722Z,94.90
2019-01-16T05:29:01.837Z,94.90
2019-01-16T05:31:44.245Z,94.90
2019-01-16T05:34:24.778Z,94.80
2019-01-16T05:37:11.804Z,95.00
2019-01-16T05:39:51.602Z,95.00
2019-01-16T05:42:26.625Z,95.00
2019-01-16T05:45:03.618Z,95.10
2019-01-16T05:47:37.630Z,95.10
2019-01-16T05:50:16.155Z,94.90
2019-01-16T05:52:56.163Z,95.20
2019-01-16T05:55:39.156Z,95.10
2019-01-16T05:58:10.124Z,95.10
2019-01-16T06:00:57.529Z,95.20
2019-01-16T06:03:36.634Z,95.20
2019-01-16T06:06:08.191Z,95.20
2019-01-16T06:08:47.973Z,95.30
2019-01-16T06:11:27.952Z,95.30
2019-01-16T06:14:02.184Z,95.50
2019-01-16T06:16:42.903Z,95.30
2019-01-16T06:19:16.663Z,95.50
2019-01-16T06:21:53.439Z,95.50
2019-01-16T06:24:24.727Z,95.40
2019-01-16T06:26:55.679Z,95.10
2019-01-16T06:29:26.635Z,95.20
2019-01-16T06:31:57.563Z,95.10
2019-01-16T06:34:34.493Z,95.10
2019-01-16T06:37:05.435Z,95.00
2019-01-16T06:39:39.355Z,94.70
2019-01-16T06:42:12.831Z,94.90
2019-01-16T06:44:49.856Z,94.80
2019-01-16T06:47:35.844Z,94.70
2019-01-16T06:50:16.594Z,94.80
2019-01-16T06:52:48.421Z,94.90
2019-01-16T06:55:22.108Z,95.00
2019-01-16T06:57:58.706Z,94.70
2019-01-16T07:00:32.692Z,94.90
2019-01-16T07:03:13.729Z,94.80
2019-01-16T07:05:44.830Z,94.60
2019-01-16T07:08:18.614Z,94.80
2019-01-16T07:10:58.622Z,95.00
2019-01-16T07:13:45.930Z,95.10
2019-01-16T07:16:16.957Z,95.40
2019-01-16T07:18:56.855Z,95.40
2019-01-16T07:21:44.381Z,95.20
2019-01-16T07:24:18.256Z,94.80
2019-01-16T07:27:01.269Z,95.20
2019-01-16T07:29:35.276Z,95.20
2019-01-16T07:32:11.601Z,95.30
2019-01-16T07:34:58.819Z,95.10
2019-01-16T07:37:32.502Z,95.20
2019-01-16T07:40:12.467Z,94.80
2019-01-16T07:42:55.672Z,94.90
2019-01-16T07:45:35.630Z,94.60
2019-01-16T07:48:06.576Z,94.80
2019-01-16T07:51:38.222Z,94.70
2019-01-16T07:54:14.236Z,94.60
2019-01-16T07:57:25.188Z,94.60
2019-01-16T08:00:15.246Z,94.30
2019-01-16T08:03:04.502Z,94.40
2019-01-16T08:05:38.462Z,94.60
2019-01-16T08:08:15.596Z,94.30
2019-01-16T08:10:52.394Z,94.40
2019-01-16T08:13:26.083Z,94.00
2019-01-16T08:16:13.456Z,94.10
2019-01-16T08:18:59.750Z,94.30
2019-01-16T08:21:45.988Z,94.30
2019-01-16T08:24:22.962Z,94.10
2019-01-16T08:27:13.415Z,94.10
2019-01-16T08:30:01.028Z,93.70
2019-01-16T08:32:31.971Z,93.60
2019-01-16T08:35:21.001Z,93.90
2019-01-16T08:37:54.688Z,93.80
2019-01-16T08:40:29.873Z,94.00
2019-01-16T08:43:09.861Z,93.60
2019-01-16T08:45:56.258Z,93.70
2019-01-16T08:48:27.296Z,94.20
2019-01-16T08:50:58.506Z,93.80
2019-01-16T08:53:29.686Z,93.40
2019-01-16T08:56:03.554Z,93.10
2019-01-16T08:58:43.331Z,93.40
2019-01-16T09:01:17.146Z,93.30
2019-01-16T09:03:48.178Z,93.10
2019-01-16T09:06:22.070Z,92.90
2019-01-16T09:08:53.110Z,93.00
2019-01-16T09:11:24.083Z,92.50
2019-01-16T09:13:55.045Z,92.60
2019-01-16T09:16:28.932Z,92.50
2019-01-16T09:19:09.082Z,92.20
2019-01-16T09:21:40.099Z,93.20
2019-01-16T09:24:20.049Z,92.70
2019-01-16T09:27:09.167Z,93.40
2019-01-16T09:29:42.837Z,92.60
2019-01-16T09:32:25.926Z,92.70
2019-01-16T09:35:13.187Z,92.70
2019-01-16T09:37:44.116Z,92.90
2019-01-16T09:40:15.103Z,92.80
2019-01-16T09:42:46.032Z,92.30
2019-01-16T09:45:20.114Z,92.20
2019-01-16T09:47:54.256Z,92.20
2019-01-16T09:50:34.284Z,92.30
2019-01-16T09:53:17.403Z,92.80
2019-01-16T09:56:06.446Z,92.50
2019-01-16T09:58:49.201Z,92.50
2019-01-16T10:01:29.200Z,92.70
2019-01-16T10:04:06.180Z,92.90
2019-01-16T10:06:37.167Z,92.50
2019-01-16T10:09:10.075Z,93.00
2019-01-16T10:11:43.707Z,93.50
2019-01-16T10:14:14.701Z,92.80
2019-01-16T10:16:58.011Z,92.90
2019-01-16T10:19:30.055Z,92.90
2019-01-16T10:22:16.048Z,92.70
2019-01-16T10:24:52.739Z,92.60
2019-01-16T10:27:32.585Z,93.10
2019-01-16T10:30:06.762Z,92.90
2019-01-16T10:32:46.855Z,93.10
2019-01-16T10:35:29.694Z,92.80
2019-01-16T10:38:03.391Z,93.40
2019-01-16T10:40:43.228Z,93.10
2019-01-16T10:43:14.203Z,92.90
2019-01-16T10:45:45.188Z,93.50
2019-01-16T10:48:17.095Z,92.60
2019-01-16T10:50:51.028Z,93.20
2019-01-16T10:53:37.291Z,93.00
2019-01-16T10:56:11.274Z,92.70
2019-01-16T10:58:42.288Z,93.10
2019-01-16T11:01:28.226Z,92.80
2019-01-16T11:03:59.174Z,93.10
2019-01-16T11:06:42.196Z,93.00
2019-01-16T11:09:21.787Z,92.90
2019-01-16T11:12:02.009Z,92.60
2019-01-16T11:14:38.880Z,92.60
2019-01-16T11:17:27.984Z,92.20
2019-01-16T11:20:01.911Z,92.50
2019-01-16T11:22:32.945Z,91.90
2019-01-16T11:25:06.374Z,92.20
2019-01-16T11:27:46.327Z,92.40
2019-01-16T11:30:26.360Z,92.40
2019-01-16T11:33:13.798Z,92.50
2019-01-16T11:35:44.766Z,92.60
2019-01-16T11:38:28.027Z,92.90
2019-01-16T11:41:01.979Z,92.50
2019-01-16T11:43:34.027Z,92.60
2019-01-16T11:46:16.999Z,92.20
2019-01-16T11:48:47.967Z,92.10
2019-01-16T11:51:37.452Z,92.30
2019-01-16T11:54:11.234Z,91.90
2019-01-16T11:56:42.291Z,91.80
2019-01-16T11:59:25.285Z,92.20
2019-01-16T12:02:05.084Z,92.20
2019-01-16T12:04:52.452Z,92.20
2019-01-16T12:07:26.428Z,92.30
2019-01-16T12:10:00.514Z,92.20
2019-01-16T12:12:37.543Z,92.50
2019-01-16T12:15:10.811Z,92.00
2019-01-16T12:17:47.603Z,92.30
2019-01-16T12:20:21.571Z,92.50
2019-01-16T12:22:52.601Z,92.40
2019-01-16T12:25:26.792Z,91.80
2019-01-16T12:28:16.027Z,92.00
2019-01-16T12:30:59.494Z,91.80
2019-01-16T12:33:42.315Z,91.70
2019-01-16T12:36:29.624Z,91.30
2019-01-16T12:39:17.135Z,91.60
2019-01-16T12:42:04.751Z,91.50
2019-01-16T12:44:50.896Z,91.60
2019-01-16T12:47:38.184Z,91.70
2019-01-16T12:50:30.203Z,92.10
2019-01-16T12:53:01.174Z,91.70
2019-01-16T12:55:34.886Z,92.10
2019-01-16T12:58:22.080Z,91.80
2019-01-16T13:00:55.744Z,91.90
2019-01-16T13:03:36.053Z,92.30
2019-01-16T13:06:07.128Z,92.10
2019-01-16T13:08:51.401Z,91.90
2019-01-16T13:11:22.406Z,91.80
2019-01-16T13:14:05.579Z,92.10
2019-01-16T13:16:52.534Z,92.20
2019-01-16T13:19:23.690Z,92.40
2019-01-16T13:21:54.883Z,92.20
2019-01-16T13:24:25.835Z,92.30
2019-01-16T13:27:13.061Z,92.30
2019-01-16T13:29:44.371Z,91.90
2019-01-16T13:32:24.517Z,92.20
2019-01-16T13:35:11.876Z,92.00
2019-01-16T13:37:54.985Z,91.70
2019-01-16T13:40:35.135Z,91.30
2019-01-16T13:43:09.029Z,91.80
2019-01-16T13:45:40.119Z,92.10
2019-01-16T13:48:23.145Z,91.50
2019-01-16T13:50:54.193Z,91.60
2019-01-16T13:53:40.552Z,92.10
2019-01-16T13:56:11.585Z,91.60
2019-01-16T13:58:48.414Z,91.90
2019-01-16T14:01:28.534Z,91.90
2019-01-16T14:04:17.873Z,91.70
2019-01-16T14:06:51.437Z,91.60
2019-01-16T14:09:37.723Z,92.00
2019-01-16T14:12:08.679Z,91.40
2019-01-16T14:14:55.919Z,91.10
2019-01-16T14:17:45.393Z,91.50
2019-01-16T14:20:23.291Z,91.20
2019-01-16T14:22:54.306Z,91.20
2019-01-16T14:25:25.347Z,90.40
2019-01-16T14:27:56.417Z,90.90
2019-01-16T14:30:28.585Z,91.00
2019-01-16T14:32:59.570Z,91.50
2019-01-16T14:35:42.696Z,91.20
2019-01-16T14:38:32.099Z,91.50
2019-01-16T14:41:03.157Z,91.30
2019-01-16T14:43:39.681Z,91.20
2019-01-16T14:46:27.215Z,91.50
2019-01-16T14:48:58.284Z,91.40
2019-01-16T14:51:29.522Z,91.20
2019-01-16T14:54:00.526Z,91.20
2019-01-16T14:56:34.204Z,90.50
2019-01-16T14:59:05.167Z,90.40
2019-01-16T15:01:38.907Z,90.30
2019-01-16T15:04:27.290Z,90.70
2019-01-16T15:06:59.040Z,90.40
2019-01-16T15:09:30.914Z,90.50
2019-01-16T15:12:20.604Z,90.70
2019-01-16T15:14:54.414Z,90.70
2019-01-16T15:17:27.999Z,91.10
2019-01-16T15:19:59.190Z,91.00
2019-01-16T15:22:39.184Z,91.40
2019-01-16T15:25:19.024Z,91.40
2019-01-16T15:27:53.042Z,91.30
2019-01-16T15:30:38.933Z,91.30
2019-01-16T15:33:28.290Z,91.90
2019-01-16T15:36:09.868Z,92.10
2019-01-16T15:38:46.562Z,91.50
2019-01-16T15:41:26.366Z,91.90
2019-01-16T15:43:57.746Z,91.50
2019-01-16T15:46:34.599Z,91.70
2019-01-16T15:49:11.995Z,91.70
2019-01-16T15:51:45.062Z,92.10
2019-01-16T15:54:32.504Z,91.70
2019-01-16T15:57:06.403Z,91.90
2019-01-16T15:59:43.481Z,92.40
2019-01-16T16:02:32.763Z,92.10
2019-01-16T16:05:06.479Z,92.20
2019-01-16T16:07:43.376Z,92.30
2019-01-16T16:10:32.712Z,92.90
2019-01-16T16:13:21.756Z,92.50
2019-01-16T16:15:55.874Z,92.40
2019-01-16T16:18:30.081Z,92.60
2019-01-16T16:21:13.208Z,92.70
2019-01-16T16:24:00.873Z,92.90
2019-01-16T16:26:37.914Z,92.60
2019-01-16T16:29:18.000Z,93.10
2019-01-16T16:31:49.019Z,92.90
2019-01-16T16:34:20.259Z,92.90
2019-01-16T16:37:01.518Z,93.00
2019-01-16T16:39:41.534Z,93.10
2019-01-16T16:42:15.338Z,92.90
2019-01-16T16:44:46.370Z,93.10
2019-01-16T16:47:27.736Z,92.90
2019-01-16T16:50:05.357Z,93.00
2019-01-16T16:52:36.603Z,93.20
2019-01-16T16:55:10.789Z,93.20
2019-01-16T16:57:54.052Z,93.50
2019-01-16T17:00:33.979Z,93.40
2019-01-16T17:03:17.059Z,93.30
2019-01-16T17:06:03.123Z,93.50
2019-01-16T17:08:34.132Z,93.30
2019-01-16T17:11:21.639Z,93.50
2019-01-16T17:13:52.656Z,93.70
2019-01-16T17:16:35.528Z,93.50
2019-01-16T17:19:06.539Z,93.70
2019-01-16T17:21:46.658Z,93.60
2019-01-16T17:24:21.263Z,93.60
2019-01-16T17:26:55.493Z,93.90
2019-01-16T17:29:44.662Z,93.60
2019-01-16T17:32:25.495Z,93.60
2019-01-16T17:35:02.611Z,93.60
2019-01-16T17:37:49.964Z,93.50
2019-01-16T17:40:23.682Z,93.90
2019-01-16T17:42:54.778Z,93.90
2019-01-16T17:45:44.054Z,93.90
2019-01-16T17:48:19.006Z,94.10
2019-01-16T17:51:05.124Z,94.00
2019-01-16T17:53:36.251Z,93.90
2019-01-16T17:56:23.935Z,93.80
2019-01-16T17:59:07.238Z,93.80
2019-01-16T18:01:53.266Z,93.70
2019-01-16T18:04:27.052Z,93.40
2019-01-16T18:07:07.094Z,93.50
2019-01-16T18:09:38.111Z,93.80
2019-01-16T18:12:18.084Z,93.50
2019-01-16T18:14:49.052Z,93.50
2019-01-16T18:17:36.654Z,93.40
2019-01-16T18:20:15.961Z,93.20
2019-01-16T18:23:06.117Z,93.30
2019-01-16T18:25:43.204Z,93.30
2019-01-16T18:28:31.002Z,92.70
2019-01-16T18:31:07.989Z,93.00
2019-01-16T18:33:56.497Z,92.80
2019-01-16T18:36:44.591Z,92.50
2019-01-16T18:39:21.868Z,92.50
2019-01-16T18:42:09.266Z,92.40
2019-01-16T18:44:40.279Z,92.20
2019-01-16T18:47:14.318Z,92.00
2019-01-16T18:49:48.386Z,92.20
2019-01-16T18:52:35.937Z,91.90
2019-01-16T18:55:08.484Z,92.10
2019-01-16T18:57:41.542Z,91.90
2019-01-16T19:00:24.631Z,91.60
2019-01-16T19:03:01.287Z,91.60
2019-01-16T19:05:32.308Z,91.70
2019-01-16T19:08:15.029Z,91.60
2019-01-16T19:10:46.091Z,91.80
2019-01-16T19:13:20.037Z,91.80
2019-01-16T19:15:51.223Z,91.70
2019-01-16T19:18:28.358Z,91.50
2019-01-16T19:21:14.454Z,91.60
2019-01-16T19:23:45.463Z,91.50
2019-01-16T19:26:32.529Z,91.60
2019-01-16T19:29:06.718Z,91.30
2019-01-16T19:31:40.487Z,91.50
2019-01-16T19:34:14.334Z,91.60
2019-01-16T19:36:51.212Z,91.60
2019-01-16T19:39:28.136Z,91.80
2019-01-16T19:42:08.356Z,92.20
2019-01-16T19:44:51.355Z,91.90
2019-01-16T19:47:38.934Z,91.50
2019-01-16T19:50:13.622Z,91.50
2019-01-16T19:52:47.865Z,91.40
2019-01-16T19:55:31.015Z,91.10
2019-01-16T19:58:04.404Z,91.20
2019-01-16T20:00:49.332Z,91.80
2019-01-16T20:03:39.999Z,91.40
2019-01-16T20:06:34.755Z,91.40
2019-01-16T20:09:17.674Z,91.90
2019-01-16T20:11:51.065Z,91.10
2019-01-16T20:14:23.260Z,91.00
2019-01-16T20:17:03.362Z,91.20
2019-01-16T20:19:41.689Z,90.80
2019-01-16T20:22:15.810Z,91.00
2019-01-16T20:24:51.075Z,90.70
2019-01-16T20:27:22.203Z,90.80
2019-01-16T20:30:09.657Z,90.70
2019-01-16T20:32:46.779Z,90.90
2019-01-16T20:35:23.008Z,91.10
2019-01-16T20:37:55.875Z,90.90
2019-01-16T20:40:35.225Z,91.00
2019-01-16T20:43:21.568Z,90.60
2019-01-16T20:45:54.239Z,91.00
2019-01-16T20:48:32.593Z,91.20
2019-01-16T20:51:20.021Z,90.40
2019-01-16T20:53:54.468Z,90.40
2019-01-16T20:56:31.696Z,90.50
2019-01-16T20:59:16.055Z,89.90
2019-01-16T21:01:59.407Z,90.70
2019-01-16T21:04:33.341Z,90.20
2019-01-16T21:07:07.245Z,90.80
2019-01-16T21:09:47.024Z,90.60
2019-01-16T21:12:18.066Z,90.30
2019-01-16T21:14:49.118Z,90.20
2019-01-16T21:17:23.056Z,91.00
2019-01-16T21:19:54.068Z,90.20
2019-01-16T21:22:30.750Z,90.40
2019-01-16T21:25:07.744Z,90.00
2019-01-16T21:27:41.250Z,89.60
2019-01-16T21:30:20.106Z,88.20
2019-01-16T21:32:57.113Z,87.30
2019-01-16T21:35:28.067Z,87.50
2019-01-16T21:38:08.021Z,87.30
2019-01-16T21:40:55.540Z,86.40
2019-01-16T21:43:43.047Z,86.80
2019-01-16T21:46:24.818Z,86.10
2019-01-16T21:49:04.672Z,86.30
2019-01-16T21:51:50.916Z,84.60
2019-01-16T21:54:24.859Z,84.90
2019-01-16T21:57:12.051Z,85.40
2019-01-16T21:59:45.792Z,85.00
2019-01-16T22:02:19.746Z,86.20
2019-01-16T22:04:51.790Z,84.70
2019-01-16T22:07:22.743Z,84.70
2019-01-16T22:10:05.952Z,84.00
2019-01-16T22:12:39.823Z,85.00
2019-01-16T22:15:30.076Z,83.60
2019-01-16T22:18:10.087Z,82.60
2019-01-16T22:20:45.223Z,84.20
2019-01-16T22:23:16.169Z,83.50
2019-01-16T22:25:47.131Z,83.70
2019-01-16T22:28:23.910Z,84.00
2019-01-16T22:30:54.918Z,83.80
2019-01-16T22:33:25.883Z,81.80
2019-01-16T22:35:59.827Z,82.40
2019-01-16T22:38:30.851Z,81.70
2019-01-16T22:41:18.358Z,82.80
2019-01-16T22:43:55.554Z,83.20
2019-01-16T22:46:29.393Z,83.90
2019-01-16T22:49:00.416Z,84.20
2019-01-16T22:51:34.387Z,83.50
2019-01-16T22:54:08.237Z,83.90
2019-01-16T22:56:45.326Z,84.00
2019-01-16T22:59:31.355Z,83.20
2019-01-16T23:02:02.333Z,83.30
2019-01-16T23:04:33.291Z,84.40
2019-01-16T23:07:07.226Z,83.30
2019-01-16T23:09:38.260Z,84.20
2019-01-16T23:12:09.193Z,82.90
2019-01-16T23:14:41.216Z,83.00
2019-01-16T23:17:12.199Z,82.40
2019-01-16T23:19:43.146Z,83.90
2019-01-16T23:22:17.106Z,82.30
2019-01-16T23:24:51.070Z,81.50
2019-01-16T23:27:47.160Z,82.50
2019-01-16T23:30:21.445Z,81.10
2019-01-16T23:32:58.147Z,81.80
2019-01-16T23:35:34.891Z,81.70
2019-01-16T23:38:18.027Z,82.80
2019-01-16T23:40:52.080Z,82.80
2019-01-16T23:43:39.314Z,82.30
2019-01-16T23:46:10.291Z,82.40
2019-01-16T23:48:58.093Z,82.30
2019-01-16T23:51:38.330Z,81.60
2019-01-16T23:54:12.223Z,83.50
2019-01-16T23:56:55.570Z,83.30
2019-01-16T23:59:29.112Z,83.70
